createdAt,value
2019-02-11T00:01:02.167Z,49.25
2019-02-11T00:02:08.107Z,49.36
2019-02-11T00:03:12.392Z,49.51
2019-02-11T00:04:16.309Z,49.36
2019-02-11T00:05:20.700Z,49.45
2019-02-11T00:06:24.756Z,49.42
2019-02-11T00:07:28.910Z,49.18
2019-02-11T00:08:33.015Z,49.04
2019-02-11T00:09:37.218Z,49.23
2019-02-11T00:10:41.525Z,49.39
2019-02-11T00:11:45.734Z,49.58
2019-02-11T00:12:49.940Z,49.50
2019-02-11T00:13:54.439Z,49.56
2019-02-11T00:14:58.353Z,49.75
2019-02-11T00:16:02.701Z,49.67
2019-02-11T00:17:06.633Z,49.52
2019-02-11T00:18:10.622Z,49.60
2019-02-11T00:19:14.586Z,49.66
2019-02-11T00:20:18.487Z,49.71
2019-02-11T00:21:22.796Z,49.49
2019-02-11T00:22:27.073Z,49.48
2019-02-11T00:23:31.381Z,49.51
2019-02-11T00:24:35.732Z,49.56
2019-02-11T00:25:39.794Z,49.58
2019-02-11T00:26:44.415Z,49.59
2019-02-11T00:27:48.530Z,49.43
2019-02-11T00:28:52.535Z,49.51
2019-02-11T00:29:56.540Z,49.44
2019-02-11T00:31:00.933Z,49.50
2019-02-11T00:32:05.041Z,49.55
2019-02-11T00:33:09.228Z,49.62
2019-02-11T00:34:13.476Z,49.76
2019-02-11T00:35:17.848Z,49.84
2019-02-11T00:36:21.756Z,49.79
2019-02-11T00:37:26.058Z,49.82
2019-02-11T00:38:29.902Z,49.75
2019-02-11T00:39:34.149Z,49.53
2019-02-11T00:40:38.673Z,49.56
2019-02-11T00:41:42.882Z,49.59
2019-02-11T00:42:46.887Z,49.57
2019-02-11T00:43:51.003Z,49.43
2019-02-11T00:44:55.240Z,49.30
2019-02-11T00:45:59.700Z,49.17
2019-02-11T00:47:04.460Z,49.25
2019-02-11T00:48:09.035Z,49.32
2019-02-11T00:49:13.869Z,49.11
2019-02-11T00:50:18.676Z,49.14
2019-02-11T00:51:22.595Z,49.17
2019-02-11T00:52:27.185Z,49.01
2019-02-11T00:53:31.804Z,49.05
2019-02-11T00:54:36.514Z,48.69
2019-02-11T00:55:40.915Z,48.94
2019-02-11T00:56:45.161Z,48.88
2019-02-11T00:57:50.098Z,49.03
2019-02-11T00:58:54.576Z,49.02
2019-02-11T00:59:58.824Z,49.04
2019-02-11T01:01:03.105Z,48.89
2019-02-11T01:02:07.644Z,48.93
2019-02-11T01:03:11.497Z,48.93
2019-02-11T01:04:15.414Z,48.97
2019-02-11T01:05:19.703Z,48.85
2019-02-11T01:06:23.675Z,48.87
2019-02-11T01:07:27.504Z,48.80
2019-02-11T01:08:31.494Z,48.84
2019-02-11T01:09:35.647Z,48.89
2019-02-11T01:10:39.883Z,48.86
2019-02-11T01:11:44.117Z,48.64
2019-02-11T01:12:48.268Z,48.77
2019-02-11T01:13:52.443Z,48.82
2019-02-11T01:14:56.423Z,48.81
2019-02-11T01:16:00.396Z,48.83
2019-02-11T01:17:04.377Z,48.88
2019-02-11T01:18:08.858Z,48.84
2019-02-11T01:19:13.020Z,48.78
2019-02-11T01:20:17.240Z,48.74
2019-02-11T01:21:21.718Z,48.91
2019-02-11T01:22:25.878Z,48.75
2019-02-11T01:23:29.724Z,48.67
2019-02-11T01:24:34.056Z,48.80
2019-02-11T01:25:38.279Z,48.84
2019-02-11T01:26:42.985Z,48.67
2019-02-11T01:27:47.416Z,48.49
2019-02-11T01:28:51.603Z,48.57
2019-02-11T01:29:56.100Z,48.60
2019-02-11T01:31:00.004Z,48.59
2019-02-11T01:32:03.971Z,48.66
2019-02-11T01:33:08.187Z,48.64
2019-02-11T01:34:12.170Z,48.74
2019-02-11T01:35:16.660Z,48.81
2019-02-11T01:36:20.594Z,48.89
2019-02-11T01:37:24.564Z,48.73
2019-02-11T01:38:29.055Z,48.87
2019-02-11T01:39:33.498Z,48.54
2019-02-11T01:40:37.882Z,48.81
2019-02-11T01:41:41.905Z,48.97
2019-02-11T01:42:45.742Z,49.23
2019-02-11T01:43:50.124Z,49.50
2019-02-11T01:44:54.391Z,49.79
2019-02-11T01:45:58.374Z,49.87
2019-02-11T01:47:02.315Z,49.92
2019-02-11T01:48:06.908Z,49.71
2019-02-11T01:49:11.187Z,49.90
2019-02-11T01:50:15.193Z,49.98
2019-02-11T01:51:19.147Z,50.16
2019-02-11T01:52:23.858Z,50.38
2019-02-11T01:53:27.844Z,50.31
2019-02-11T01:54:31.879Z,50.48
2019-02-11T01:55:35.859Z,50.64
2019-02-11T01:56:39.849Z,50.86
2019-02-11T01:57:44.353Z,51.11
2019-02-11T01:58:48.452Z,51.28
2019-02-11T01:59:52.968Z,51.46
2019-02-11T02:00:57.585Z,51.55
2019-02-11T02:02:01.766Z,51.76
2019-02-11T02:03:05.938Z,51.90
2019-02-11T02:04:10.095Z,51.88
2019-02-11T02:05:14.459Z,52.01
2019-02-11T02:06:18.372Z,52.26
2019-02-11T02:07:22.352Z,52.40
2019-02-11T02:08:26.400Z,52.46
2019-02-11T02:09:30.716Z,52.17
2019-02-11T02:10:34.723Z,52.14
2019-02-11T02:11:38.700Z,52.38
2019-02-11T02:12:42.644Z,52.62
2019-02-11T02:13:46.551Z,52.75
2019-02-11T02:14:50.539Z,52.97
2019-02-11T02:15:54.525Z,53.10
2019-02-11T02:16:58.824Z,53.07
2019-02-11T02:18:03.718Z,53.00
2019-02-11T02:19:07.705Z,53.17
2019-02-11T02:20:12.794Z,53.42
2019-02-11T02:21:17.931Z,53.67
2019-02-11T02:22:21.839Z,53.91
2019-02-11T02:23:26.129Z,54.07
2019-02-11T02:24:29.962Z,54.21
2019-02-11T02:25:34.361Z,54.32
2019-02-11T02:26:38.398Z,54.47
2019-02-11T02:27:42.623Z,54.56
2019-02-11T02:28:46.900Z,54.51
2019-02-11T02:29:51.041Z,54.50
2019-02-11T02:30:55.044Z,54.61
2019-02-11T02:31:59.551Z,54.69
2019-02-11T02:33:03.528Z,54.76
2019-02-11T02:34:07.858Z,54.82
2019-02-11T02:35:12.331Z,54.94
2019-02-11T02:36:16.555Z,55.07
2019-02-11T02:37:20.506Z,55.12
2019-02-11T02:38:24.739Z,55.21
2019-02-11T02:39:28.656Z,55.27
2019-02-11T02:40:32.992Z,55.37
2019-02-11T02:41:37.197Z,55.31
2019-02-11T02:42:41.107Z,55.30
2019-02-11T02:43:54.940Z,55.25
2019-02-11T02:44:51.353Z,55.34
2019-02-11T02:45:55.552Z,55.55
2019-02-11T02:46:59.859Z,55.62
2019-02-11T02:48:04.079Z,55.66
2019-02-11T02:49:08.314Z,55.74
2019-02-11T02:50:12.537Z,55.77
2019-02-11T02:51:16.633Z,55.90
2019-02-11T02:52:20.800Z,56.02
2019-02-11T02:53:24.782Z,55.93
2019-02-11T02:54:28.761Z,56.03
2019-02-11T02:55:32.997Z,56.08
2019-02-11T02:56:37.168Z,56.17
2019-02-11T02:57:41.409Z,56.31
2019-02-11T02:58:45.920Z,56.46
2019-02-11T02:59:50.358Z,56.43
2019-02-11T03:00:54.262Z,56.34
2019-02-11T03:01:58.766Z,56.43
2019-02-11T03:03:02.871Z,56.50
2019-02-11T03:04:07.256Z,56.57
2019-02-11T03:05:11.252Z,56.54
2019-02-11T03:06:15.459Z,56.62
2019-02-11T03:07:19.734Z,56.74
2019-02-11T03:08:23.976Z,56.78
2019-02-11T03:09:28.413Z,56.75
2019-02-11T03:10:32.594Z,56.73
2019-02-11T03:11:36.538Z,56.48
2019-02-11T03:12:40.758Z,56.51
2019-02-11T03:13:45.008Z,56.53
2019-02-11T03:14:49.338Z,56.63
2019-02-11T03:15:53.439Z,56.59
2019-02-11T03:16:58.031Z,56.63
2019-02-11T03:18:02.239Z,56.53
2019-02-11T03:19:06.664Z,56.47
2019-02-11T03:20:11.165Z,56.49
2019-02-11T03:21:15.513Z,56.50
2019-02-11T03:22:19.626Z,56.60
2019-02-11T03:23:23.595Z,56.61
2019-02-11T03:24:27.580Z,56.55
2019-02-11T03:25:31.413Z,56.70
2019-02-11T03:26:35.487Z,56.58
2019-02-11T03:27:39.403Z,56.25
2019-02-11T03:28:43.653Z,56.14
2019-02-11T03:29:47.649Z,56.31
2019-02-11T03:30:51.569Z,56.78
2019-02-11T03:31:55.822Z,57.10
2019-02-11T03:32:59.889Z,57.23
2019-02-11T03:34:04.120Z,57.29
2019-02-11T03:35:08.466Z,57.33
2019-02-11T03:36:12.306Z,57.44
2019-02-11T03:37:16.334Z,57.59
2019-02-11T03:38:20.557Z,57.73
2019-02-11T03:39:24.593Z,57.71
2019-02-11T03:40:28.580Z,57.67
2019-02-11T03:41:32.811Z,57.62
2019-02-11T03:42:37.334Z,57.58
2019-02-11T03:43:41.641Z,57.63
2019-02-11T03:44:45.665Z,57.57
2019-02-11T03:45:49.822Z,57.64
2019-02-11T03:46:54.113Z,57.60
2019-02-11T03:47:58.598Z,57.69
2019-02-11T03:49:02.613Z,57.57
2019-02-11T03:50:07.081Z,57.40
2019-02-11T03:51:11.500Z,57.51
2019-02-11T03:52:15.571Z,57.62
2019-02-11T03:53:20.106Z,57.64
2019-02-11T03:54:24.412Z,57.63
2019-02-11T03:55:28.391Z,57.68
2019-02-11T03:56:32.937Z,57.67
2019-02-11T03:57:36.906Z,57.72
2019-02-11T03:58:40.952Z,57.61
2019-02-11T03:59:45.236Z,57.44
2019-02-11T04:00:49.568Z,57.20
2019-02-11T04:01:53.927Z,57.57
2019-02-11T04:02:58.582Z,57.82
2019-02-11T04:04:03.251Z,57.98
2019-02-11T04:05:08.054Z,58.11
2019-02-11T04:06:12.042Z,58.12
2019-02-11T04:07:16.031Z,58.15
2019-02-11T04:08:20.209Z,58.28
2019-02-11T04:09:24.124Z,58.05
2019-02-11T04:10:27.966Z,57.93
2019-02-11T04:11:32.523Z,58.04
2019-02-11T04:12:37.036Z,58.18
2019-02-11T04:13:41.030Z,58.07
2019-02-11T04:14:45.246Z,58.25
2019-02-11T04:15:49.346Z,58.33
2019-02-11T04:16:53.261Z,58.36
2019-02-11T04:17:57.667Z,58.38
2019-02-11T04:19:01.647Z,58.42
2019-02-11T04:20:06.139Z,58.43
2019-02-11T04:21:10.401Z,58.45
2019-02-11T04:22:14.771Z,58.45
2019-02-11T04:23:18.934Z,58.47
2019-02-11T04:24:23.401Z,58.50
2019-02-11T04:25:27.477Z,58.55
2019-02-11T04:26:33.106Z,58.43
2019-02-11T04:27:37.703Z,58.44
2019-02-11T04:28:41.934Z,58.41
2019-02-11T04:29:45.799Z,58.40
2019-02-11T04:30:49.791Z,58.41
2019-02-11T04:31:54.278Z,58.18
2019-02-11T04:32:58.480Z,58.15
2019-02-11T04:34:03.095Z,58.03
2019-02-11T04:35:07.462Z,57.68
2019-02-11T04:36:11.755Z,57.61
2019-02-11T04:37:15.962Z,57.69
2019-02-11T04:38:20.294Z,57.70
2019-02-11T04:39:24.256Z,57.70
2019-02-11T04:40:28.168Z,57.67
2019-02-11T04:41:32.008Z,57.59
2019-02-11T04:42:36.240Z,57.54
2019-02-11T04:43:40.441Z,57.50
2019-02-11T04:44:44.627Z,57.45
2019-02-11T04:45:48.968Z,57.47
2019-02-11T04:46:54.832Z,57.48
2019-02-11T04:47:58.998Z,57.43
2019-02-11T04:49:02.911Z,57.42
2019-02-11T04:50:08.040Z,57.31
2019-02-11T04:51:11.999Z,57.16
2019-02-11T04:52:15.915Z,57.04
2019-02-11T04:53:20.264Z,56.79
2019-02-11T04:54:24.766Z,56.72
2019-02-11T04:55:29.075Z,56.60
2019-02-11T04:56:33.364Z,56.48
2019-02-11T04:57:37.353Z,56.39
2019-02-11T04:58:41.336Z,56.39
2019-02-11T04:59:45.186Z,55.98
2019-02-11T05:00:49.089Z,56.09
2019-02-11T05:01:53.936Z,56.34
2019-02-11T05:02:58.334Z,56.52
2019-02-11T05:04:02.547Z,56.55
2019-02-11T05:05:07.342Z,56.60
2019-02-11T05:06:11.507Z,56.62
2019-02-11T05:07:15.666Z,56.62
2019-02-11T05:08:19.496Z,56.28
2019-02-11T05:09:23.559Z,56.10
2019-02-11T05:10:27.785Z,56.20
2019-02-11T05:11:32.198Z,56.21
2019-02-11T05:12:36.033Z,56.17
2019-02-11T05:13:39.861Z,56.15
2019-02-11T05:14:44.406Z,56.34
2019-02-11T05:15:48.518Z,56.44
2019-02-11T05:16:52.557Z,56.41
2019-02-11T05:17:56.414Z,56.46
2019-02-11T05:19:00.534Z,56.35
2019-02-11T05:20:05.013Z,56.30
2019-02-11T05:21:09.100Z,56.26
2019-02-11T05:22:13.288Z,56.15
2019-02-11T05:23:17.293Z,56.16
2019-02-11T05:24:21.195Z,56.08
2019-02-11T05:25:25.388Z,55.95
2019-02-11T05:26:29.285Z,55.92
2019-02-11T05:27:33.511Z,55.92
2019-02-11T05:28:37.335Z,55.54
2019-02-11T05:29:41.497Z,55.34
2019-02-11T05:30:45.676Z,55.56
2019-02-11T05:31:49.579Z,55.53
2019-02-11T05:32:53.979Z,55.78
2019-02-11T05:33:58.299Z,55.84
2019-02-11T05:35:02.207Z,55.69
2019-02-11T05:36:06.212Z,55.70
2019-02-11T05:37:10.433Z,55.65
2019-02-11T05:38:14.723Z,55.80
2019-02-11T05:39:18.803Z,55.70
2019-02-11T05:40:22.657Z,55.65
2019-02-11T05:41:26.496Z,55.68
2019-02-11T05:42:30.323Z,55.80
2019-02-11T05:43:34.732Z,55.77
2019-02-11T05:44:38.942Z,55.83
2019-02-11T05:45:42.934Z,55.85
2019-02-11T05:46:47.117Z,55.83
2019-02-11T05:47:51.652Z,55.44
2019-02-11T05:48:55.559Z,55.50
2019-02-11T05:49:59.861Z,55.80
2019-02-11T05:51:04.118Z,56.08
2019-02-11T05:52:08.252Z,56.24
2019-02-11T05:53:12.162Z,56.24
2019-02-11T05:54:16.088Z,55.85
2019-02-11T05:55:19.983Z,55.88
2019-02-11T05:56:24.098Z,56.08
2019-02-11T05:57:28.376Z,56.31
2019-02-11T05:58:33.613Z,56.47
2019-02-11T05:59:37.639Z,56.49
2019-02-11T06:00:41.917Z,56.44
2019-02-11T06:01:46.429Z,56.43
2019-02-11T06:02:50.272Z,56.55
2019-02-11T06:03:54.191Z,56.41
2019-02-11T06:04:58.092Z,56.38
2019-02-11T06:06:02.328Z,56.36
2019-02-11T06:07:06.581Z,56.41
2019-02-11T06:08:10.868Z,56.45
2019-02-11T06:09:15.196Z,56.51
2019-02-11T06:10:19.481Z,56.29
2019-02-11T06:11:23.410Z,56.30
2019-02-11T06:12:27.309Z,56.29
2019-02-11T06:13:31.172Z,56.29
2019-02-11T06:14:35.428Z,56.26
2019-02-11T06:15:40.008Z,56.16
2019-02-11T06:16:44.011Z,56.12
2019-02-11T06:17:47.888Z,56.15
2019-02-11T06:18:52.500Z,56.17
2019-02-11T06:19:56.418Z,56.17
2019-02-11T06:21:00.398Z,56.23
2019-02-11T06:22:04.402Z,56.14
2019-02-11T06:23:08.700Z,56.12
2019-02-11T06:24:12.608Z,56.06
2019-02-11T06:25:16.468Z,56.00
2019-02-11T06:26:20.344Z,55.97
2019-02-11T06:27:24.500Z,55.86
2019-02-11T06:28:28.576Z,55.49
2019-02-11T06:29:32.669Z,55.44
2019-02-11T06:30:36.913Z,55.37
2019-02-11T06:31:41.527Z,55.27
2019-02-11T06:32:45.749Z,55.23
2019-02-11T06:33:50.168Z,55.20
2019-02-11T06:34:54.172Z,55.22
2019-02-11T06:35:58.757Z,55.28
2019-02-11T06:37:02.950Z,55.15
2019-02-11T06:38:06.892Z,54.95
2019-02-11T06:39:10.892Z,54.87
2019-02-11T06:40:14.869Z,54.71
2019-02-11T06:41:18.777Z,54.63
2019-02-11T06:42:23.010Z,54.66
2019-02-11T06:43:27.416Z,54.73
2019-02-11T06:44:31.319Z,54.79
2019-02-11T06:45:35.226Z,54.73
2019-02-11T06:46:39.540Z,54.72
2019-02-11T06:47:43.465Z,54.55
2019-02-11T06:48:47.680Z,54.40
2019-02-11T06:49:52.051Z,54.23
2019-02-11T06:50:56.141Z,54.25
2019-02-11T06:52:00.555Z,54.33
2019-02-11T06:53:04.470Z,54.38
2019-02-11T06:54:08.309Z,54.15
2019-02-11T06:55:12.618Z,54.03
2019-02-11T06:56:16.453Z,53.66
2019-02-11T06:57:20.304Z,53.59
2019-02-11T06:58:24.136Z,53.27
2019-02-11T06:59:28.047Z,53.53
2019-02-11T07:00:32.210Z,53.67
2019-02-11T07:01:36.359Z,53.62
2019-02-11T07:02:41.777Z,53.68
2019-02-11T07:03:46.172Z,53.68
2019-02-11T07:04:50.285Z,53.91
2019-02-11T07:05:54.514Z,54.11
2019-02-11T07:06:58.426Z,54.34
2019-02-11T07:08:02.348Z,54.36
2019-02-11T07:09:06.968Z,54.27
2019-02-11T07:10:11.165Z,54.33
2019-02-11T07:11:15.500Z,54.38
2019-02-11T07:12:19.415Z,54.32
2019-02-11T07:13:23.603Z,54.38
2019-02-11T07:14:27.515Z,54.38
2019-02-11T07:15:32.015Z,54.39
2019-02-11T07:16:35.929Z,54.40
2019-02-11T07:17:39.981Z,54.39
2019-02-11T07:18:44.429Z,54.35
2019-02-11T07:19:48.615Z,54.27
2019-02-11T07:20:52.967Z,54.06
2019-02-11T07:21:56.810Z,53.79
2019-02-11T07:23:01.223Z,53.75
2019-02-11T07:24:05.868Z,53.89
2019-02-11T07:25:10.533Z,54.04
2019-02-11T07:26:14.905Z,54.01
2019-02-11T07:27:18.950Z,53.95
2019-02-11T07:28:22.804Z,54.10
2019-02-11T07:29:27.411Z,54.20
2019-02-11T07:30:32.026Z,54.24
2019-02-11T07:31:36.081Z,54.30
2019-02-11T07:32:40.651Z,54.47
2019-02-11T07:33:44.703Z,54.51
2019-02-11T07:34:48.615Z,54.51
2019-02-11T07:35:52.848Z,54.50
2019-02-11T07:36:57.116Z,54.47
2019-02-11T07:38:01.768Z,54.50
2019-02-11T07:39:09.053Z,54.48
2019-02-11T07:40:13.280Z,54.33
2019-02-11T07:41:18.482Z,54.41
2019-02-11T07:43:00.169Z,54.29
2019-02-11T07:44:29.399Z,54.27
2019-02-11T07:45:52.717Z,54.54
2019-02-11T07:46:59.611Z,54.74
2019-02-11T07:48:03.605Z,54.75
2019-02-11T07:49:07.934Z,54.83
2019-02-11T07:50:11.920Z,54.87
2019-02-11T07:51:16.414Z,54.72
2019-02-11T07:52:26.617Z,54.61
2019-02-11T07:53:26.150Z,54.54
2019-02-11T07:54:30.155Z,54.44
2019-02-11T07:55:34.352Z,54.37
2019-02-11T07:56:38.559Z,54.23
2019-02-11T07:57:42.593Z,54.26
2019-02-11T07:58:46.601Z,54.21
2019-02-11T07:59:50.517Z,54.19
2019-02-11T08:00:54.774Z,54.22
2019-02-11T08:01:58.763Z,54.12
2019-02-11T08:03:02.999Z,54.06
2019-02-11T08:04:07.022Z,54.03
2019-02-11T08:05:11.288Z,54.02
2019-02-11T08:06:15.801Z,53.98
2019-02-11T08:07:20.692Z,53.96
2019-02-11T08:08:24.684Z,53.89
2019-02-11T08:09:28.690Z,53.87
2019-02-11T08:10:33.132Z,53.79
2019-02-11T08:11:37.116Z,53.77
2019-02-11T08:12:41.319Z,53.60
2019-02-11T08:13:45.297Z,53.48
2019-02-11T08:14:49.782Z,53.34
2019-02-11T08:15:54.299Z,53.26
2019-02-11T08:16:58.651Z,53.13
2019-02-11T08:18:02.849Z,53.21
2019-02-11T08:19:06.768Z,53.08
2019-02-11T08:20:10.805Z,53.07
2019-02-11T08:21:14.782Z,53.09
2019-02-11T08:22:18.771Z,52.95
2019-02-11T08:23:23.031Z,53.07
2019-02-11T08:24:27.286Z,52.91
2019-02-11T08:25:31.625Z,52.45
2019-02-11T08:26:35.930Z,52.36
2019-02-11T08:27:39.920Z,52.57
2019-02-11T08:28:43.838Z,52.54
2019-02-11T08:29:48.322Z,52.60
2019-02-11T08:30:52.980Z,52.58
2019-02-11T08:31:57.553Z,52.44
2019-02-11T08:33:01.862Z,52.11
2019-02-11T08:34:06.105Z,51.90
2019-02-11T08:35:11.008Z,51.84
2019-02-11T08:36:15.502Z,51.88
2019-02-11T08:37:19.809Z,51.92
2019-02-11T08:38:24.567Z,51.80
2019-02-11T08:39:28.489Z,51.77
2019-02-11T08:40:32.887Z,51.71
2019-02-11T08:41:37.127Z,51.71
2019-02-11T08:42:41.724Z,51.79
2019-02-11T08:43:46.095Z,51.86
2019-02-11T08:44:49.985Z,51.90
2019-02-11T08:45:54.215Z,51.76
2019-02-11T08:46:58.128Z,51.61
2019-02-11T08:48:02.313Z,51.59
2019-02-11T08:49:06.294Z,51.40
2019-02-11T08:50:10.306Z,51.27
2019-02-11T08:51:14.289Z,51.38
2019-02-11T08:52:18.440Z,51.37
2019-02-11T08:53:22.606Z,51.14
2019-02-11T08:54:26.786Z,51.28
2019-02-11T08:55:30.694Z,51.27
2019-02-11T08:56:34.854Z,51.10
2019-02-11T08:57:39.330Z,50.68
2019-02-11T08:58:43.314Z,50.21
2019-02-11T08:59:47.734Z,50.40
2019-02-11T09:00:51.971Z,50.48
2019-02-11T09:01:55.882Z,50.62
2019-02-11T09:02:59.861Z,50.75
2019-02-11T09:04:04.345Z,50.74
2019-02-11T09:05:08.689Z,50.61
2019-02-11T09:06:12.851Z,50.56
2019-02-11T09:07:16.955Z,50.52
2019-02-11T09:08:20.940Z,50.16
2019-02-11T09:09:24.882Z,50.00
2019-02-11T09:10:28.880Z,50.09
2019-02-11T09:11:33.473Z,50.30
2019-02-11T09:12:37.711Z,50.33
2019-02-11T09:13:42.111Z,50.35
2019-02-11T09:14:46.120Z,50.42
2019-02-11T09:15:55.366Z,50.54
2019-02-11T09:16:56.856Z,50.37
2019-02-11T09:18:01.184Z,50.50
2019-02-11T09:19:05.239Z,50.46
2019-02-11T09:20:09.688Z,50.37
2019-02-11T09:21:14.127Z,50.36
2019-02-11T09:22:18.707Z,49.71
2019-02-11T09:23:22.897Z,49.77
2019-02-11T09:24:26.807Z,49.86
2019-02-11T09:25:31.049Z,50.11
2019-02-11T09:26:34.963Z,50.16
2019-02-11T09:27:38.946Z,50.19
2019-02-11T09:28:42.923Z,50.32
2019-02-11T09:29:47.529Z,50.35
2019-02-11T09:30:51.531Z,50.41
2019-02-11T09:31:55.875Z,50.49
2019-02-11T09:33:00.090Z,50.53
2019-02-11T09:34:04.001Z,50.29
2019-02-11T09:35:08.013Z,49.89
2019-02-11T09:36:12.285Z,49.78
2019-02-11T09:37:16.124Z,49.79
2019-02-11T09:38:20.108Z,49.92
2019-02-11T09:39:24.302Z,49.94
2019-02-11T09:40:28.332Z,49.87
2019-02-11T09:41:32.417Z,49.83
2019-02-11T09:42:36.343Z,49.88
2019-02-11T09:43:40.957Z,49.90
2019-02-11T09:44:44.979Z,49.96
2019-02-11T09:45:48.919Z,49.88
2019-02-11T09:46:53.216Z,49.70
2019-02-11T09:47:57.211Z,49.60
2019-02-11T09:49:01.875Z,49.43
2019-02-11T09:50:17.392Z,49.22
2019-02-11T09:51:22.521Z,49.01
2019-02-11T09:52:26.754Z,48.91
2019-02-11T09:53:31.077Z,49.02
2019-02-11T09:54:35.585Z,49.05
2019-02-11T09:55:39.578Z,48.59
2019-02-11T09:56:43.919Z,48.44
2019-02-11T09:57:47.834Z,48.58
2019-02-11T09:58:51.747Z,48.42
2019-02-11T09:59:55.764Z,48.32
2019-02-11T10:00:59.778Z,48.15
2019-02-11T10:02:05.192Z,47.86
2019-02-11T10:03:09.290Z,47.80
2019-02-11T10:04:13.586Z,47.92
2019-02-11T10:05:17.714Z,47.83
2019-02-11T10:06:21.979Z,47.79
2019-02-11T10:07:25.911Z,47.77
2019-02-11T10:08:30.244Z,47.72
2019-02-11T10:09:34.263Z,47.61
2019-02-11T10:10:38.819Z,47.55
2019-02-11T10:11:42.884Z,47.29
2019-02-11T10:12:47.153Z,47.20
2019-02-11T10:13:51.460Z,46.72
2019-02-11T10:14:55.872Z,46.88
2019-02-11T10:16:00.255Z,46.99
2019-02-11T10:17:04.671Z,47.05
2019-02-11T10:18:08.974Z,47.01
2019-02-11T10:19:13.383Z,47.18
2019-02-11T10:20:17.696Z,47.14
2019-02-11T10:21:21.621Z,46.92
2019-02-11T10:22:25.946Z,46.47
2019-02-11T10:23:30.559Z,46.29
2019-02-11T10:24:34.481Z,45.99
2019-02-11T10:25:39.033Z,45.85
2019-02-11T10:26:43.371Z,45.72
2019-02-11T10:27:47.370Z,45.41
2019-02-11T10:28:51.366Z,45.15
2019-02-11T10:29:55.753Z,45.24
2019-02-11T10:31:00.110Z,45.51
2019-02-11T10:32:04.776Z,45.65
2019-02-11T10:33:09.098Z,45.80
2019-02-11T10:34:13.077Z,45.76
2019-02-11T10:35:17.902Z,45.75
2019-02-11T10:36:22.236Z,45.33
2019-02-11T10:37:26.257Z,45.25
2019-02-11T10:38:36.292Z,45.28
2019-02-11T10:39:36.490Z,44.88
2019-02-11T10:40:40.587Z,44.52
2019-02-11T10:41:44.877Z,43.99
2019-02-11T10:42:48.867Z,44.13
2019-02-11T10:43:52.853Z,44.10
2019-02-11T10:44:56.766Z,44.33
2019-02-11T10:46:00.674Z,44.56
2019-02-11T10:47:07.148Z,44.73
2019-02-11T10:48:11.345Z,44.92
2019-02-11T10:49:16.302Z,44.84
2019-02-11T10:50:20.560Z,44.54
2019-02-11T10:51:24.901Z,44.08
2019-02-11T10:52:29.254Z,44.40
2019-02-11T10:53:33.166Z,44.34
2019-02-11T10:54:37.831Z,44.60
2019-02-11T10:55:42.119Z,44.77
2019-02-11T10:56:46.551Z,44.64
2019-02-11T10:57:50.599Z,44.52
2019-02-11T10:58:54.577Z,44.54
2019-02-11T10:59:59.446Z,44.71
2019-02-11T11:01:03.439Z,44.63
2019-02-11T11:02:07.963Z,44.56
2019-02-11T11:03:12.268Z,44.54
2019-02-11T11:04:16.258Z,44.54
2019-02-11T11:05:20.244Z,44.38
2019-02-11T11:06:25.113Z,44.37
2019-02-11T11:07:29.291Z,44.67
2019-02-11T11:08:33.811Z,44.75
2019-02-11T11:09:37.797Z,44.42
2019-02-11T11:10:42.061Z,44.61
2019-02-11T11:11:46.274Z,44.47
2019-02-11T11:12:50.282Z,44.58
2019-02-11T11:13:54.461Z,44.50
2019-02-11T11:14:58.643Z,44.43
2019-02-11T11:16:02.635Z,44.44
2019-02-11T11:17:08.411Z,44.34
2019-02-11T11:18:12.690Z,44.42
2019-02-11T11:19:16.686Z,44.31
2019-02-11T11:20:21.018Z,44.34
2019-02-11T11:21:25.004Z,44.32
2019-02-11T11:22:29.252Z,44.32
2019-02-11T11:23:33.106Z,44.20
2019-02-11T11:24:37.411Z,44.11
2019-02-11T11:25:41.320Z,44.08
2019-02-11T11:26:45.494Z,43.84
2019-02-11T11:27:49.738Z,43.83
2019-02-11T11:28:53.740Z,43.86
2019-02-11T11:29:58.525Z,43.63
2019-02-11T11:31:02.771Z,43.36
2019-02-11T11:32:06.759Z,43.21
2019-02-11T11:33:10.746Z,43.07
2019-02-11T11:34:14.685Z,42.80
2019-02-11T11:35:18.684Z,42.65
2019-02-11T11:36:22.932Z,42.52
2019-02-11T11:37:27.173Z,42.17
2019-02-11T11:38:31.447Z,41.86
2019-02-11T11:39:35.698Z,41.77
2019-02-11T11:40:39.940Z,41.72
2019-02-11T11:41:43.855Z,41.69
2019-02-11T11:42:47.866Z,41.81
2019-02-11T11:43:51.858Z,41.66
2019-02-11T11:44:56.113Z,41.53
2019-02-11T11:46:00.619Z,41.53
2019-02-11T11:47:05.321Z,41.22
2019-02-11T11:48:09.659Z,40.74
2019-02-11T11:49:13.595Z,40.77
2019-02-11T11:50:17.657Z,40.96
2019-02-11T11:51:21.934Z,40.78
2019-02-11T11:52:26.284Z,40.94
2019-02-11T11:53:30.549Z,41.17
2019-02-11T11:54:34.890Z,41.33
2019-02-11T11:55:38.883Z,41.22
2019-02-11T11:56:43.123Z,41.33
2019-02-11T11:57:47.447Z,41.22
2019-02-11T11:58:52.205Z,41.29
2019-02-11T11:59:56.467Z,41.30
2019-02-11T12:01:00.754Z,41.33
2019-02-11T12:02:04.703Z,41.28
2019-02-11T12:03:08.970Z,41.23
2019-02-11T12:04:12.896Z,40.97
2019-02-11T12:05:17.348Z,41.20
2019-02-11T12:06:25.320Z,41.37
2019-02-11T12:07:27.463Z,41.52
2019-02-11T12:08:31.502Z,41.51
2019-02-11T12:09:36.008Z,41.38
2019-02-11T12:10:39.933Z,41.53
2019-02-11T12:11:44.223Z,41.40
2019-02-11T12:12:48.510Z,40.99
2019-02-11T12:13:52.603Z,41.03
2019-02-11T12:14:56.585Z,41.09
2019-02-11T12:16:00.549Z,40.80
2019-02-11T12:17:04.830Z,40.90
2019-02-11T12:18:08.755Z,40.96
2019-02-11T12:19:13.446Z,40.91
2019-02-11T12:20:17.703Z,40.95
2019-02-11T12:21:21.935Z,41.08
2019-02-11T12:22:26.259Z,41.26
2019-02-11T12:23:30.574Z,41.32
2019-02-11T12:24:34.840Z,41.30
2019-02-11T12:25:38.821Z,41.35
2019-02-11T12:26:43.394Z,41.18
2019-02-11T12:27:47.420Z,41.28
2019-02-11T12:28:51.728Z,41.12
2019-02-11T12:29:55.683Z,40.92
2019-02-11T12:30:59.518Z,40.98
2019-02-11T12:32:03.533Z,40.95
2019-02-11T12:33:07.853Z,40.86
2019-02-11T12:34:11.725Z,39.97
2019-02-11T12:35:15.741Z,39.96
2019-02-11T12:36:19.738Z,40.08
2019-02-11T12:37:24.015Z,40.27
2019-02-11T12:38:27.849Z,40.25
2019-02-11T12:39:31.670Z,40.29
2019-02-11T12:40:35.781Z,40.25
2019-02-11T12:41:40.019Z,40.35
2019-02-11T12:42:44.289Z,40.38
2019-02-11T12:43:48.257Z,40.37
2019-02-11T12:44:52.574Z,40.24
2019-02-11T12:45:56.592Z,40.09
2019-02-11T12:47:13.497Z,39.17
2019-02-11T12:48:06.299Z,39.18
2019-02-11T12:49:10.302Z,38.95
2019-02-11T12:50:15.525Z,39.14
2019-02-11T12:51:19.686Z,39.39
2019-02-11T12:52:24.197Z,39.56
2019-02-11T12:53:28.286Z,39.41
2019-02-11T12:54:32.442Z,39.70
2019-02-11T12:55:36.871Z,39.97
2019-02-11T12:56:41.114Z,39.90
2019-02-11T12:57:45.609Z,40.02
2019-02-11T12:58:49.928Z,40.22
2019-02-11T12:59:54.185Z,40.19
2019-02-11T13:00:58.195Z,40.26
2019-02-11T13:02:02.445Z,39.87
2019-02-11T13:03:07.037Z,39.98
2019-02-11T13:04:11.250Z,40.13
2019-02-11T13:05:15.668Z,40.11
2019-02-11T13:06:19.553Z,39.67
2019-02-11T13:07:23.807Z,39.91
2019-02-11T13:08:27.822Z,39.95
2019-02-11T13:09:31.774Z,39.93
2019-02-11T13:10:36.281Z,39.63
2019-02-11T13:11:40.789Z,39.54
2019-02-11T13:12:45.325Z,39.81
2019-02-11T13:13:49.218Z,39.93
2019-02-11T13:14:53.388Z,39.93
2019-02-11T13:16:02.004Z,39.92
2019-02-11T13:17:14.687Z,40.01
2019-02-11T13:18:09.182Z,39.18
2019-02-11T13:19:13.337Z,39.45
2019-02-11T13:20:17.328Z,39.65
2019-02-11T13:21:21.269Z,39.81
2019-02-11T13:22:25.243Z,40.01
2019-02-11T13:23:29.681Z,39.93
2019-02-11T13:24:33.992Z,39.85
2019-02-11T13:25:38.420Z,39.79
2019-02-11T13:26:42.323Z,39.99
2019-02-11T13:27:46.580Z,40.01
2019-02-11T13:28:50.616Z,39.73
2019-02-11T13:29:55.007Z,39.72
2019-02-11T13:30:59.386Z,40.02
2019-02-11T13:32:03.631Z,40.07
2019-02-11T13:33:07.688Z,40.18
2019-02-11T13:34:11.902Z,40.38
2019-02-11T13:35:15.930Z,40.38
2019-02-11T13:36:19.885Z,40.33
2019-02-11T13:37:24.100Z,40.03
2019-02-11T13:38:28.023Z,40.18
2019-02-11T13:39:32.825Z,40.08
2019-02-11T13:40:37.532Z,39.94
2019-02-11T13:41:41.782Z,39.91
2019-02-11T13:42:45.882Z,39.63
2019-02-11T13:43:51.710Z,39.75
2019-02-11T13:44:55.686Z,39.75
2019-02-11T13:45:59.674Z,39.55
2019-02-11T13:47:03.952Z,39.67
2019-02-11T13:48:07.955Z,39.80
2019-02-11T13:49:12.643Z,39.82